Time;durP1;ratioP1;P1;durP2;ratioP2;P2;SDS_P1;SDS_P2;PMS_P1;PMS_P2;Temp;Humidity;BMP_temperature;BMP_pressure;BME280_temperature;BME280_humidity;BME280_pressure;Samples;Min_cycle;Max_cycle;Signal;HPM_P1;HPM_P2
2022/09/01 00:01:42;;;;;;;;;12.33;12.33;;;;;22.17;58.58;101133.91;5017074;28;45483;-75
2022/09/01 00:04:11;;;;;;;;;15.67;14.67;;;;;22.09;59.43;101134.28;5017201;28;45721;-75
2022/09/01 00:06:37;;;;;;;;;15.00;14.00;;;;;22.04;59.31;101133.16;5017532;28;45280;-75
2022/09/01 00:09:07;;;;;;;;;13.33;13.33;;;;;22.01;59.49;101139.03;5017012;28;45392;-75
2022/09/01 00:11:32;;;;;;;;;14.33;13.67;;;;;21.95;59.97;101134.59;5016803;28;45373;-75
2022/09/01 00:14:00;;;;;;;;;12.00;12.00;;;;;21.89;59.74;101135.56;5034169;28;45447;-75
2022/09/01 00:16:26;;;;;;;;;17.33;16.00;;;;;21.84;60.03;101141.69;5033531;28;45411;-75
2022/09/01 00:18:54;;;;;;;;;14.33;14.00;;;;;21.81;60.35;101129.47;5049619;28;45911;-75
2022/09/01 00:21:29;;;;;;;;;13.33;13.33;;;;;21.81;60.84;101132.16;5024389;28;46916;-74
2022/09/01 00:23:55;;;;;;;;;13.00;13.00;;;;;21.73;60.32;101129.00;5020296;28;45422;-75
2022/09/01 00:26:20;;;;;;;;;16.00;14.00;;;;;21.69;60.77;101125.94;5023878;28;45281;-75
2022/09/01 00:28:46;;;;;;;;;13.67;13.67;;;;;21.63;60.83;101122.31;5022492;27;46340;-75
2022/09/01 00:31:13;;;;;;;;;13.67;13.33;;;;;21.61;61.14;101124.41;5017182;28;45567;-75
2022/09/01 00:33:39;;;;;;;;;12.00;11.67;;;;;21.57;61.44;101132.22;5028168;28;45420;-75
2022/09/01 00:36:05;;;;;;;;;15.00;13.33;;;;;21.55;61.57;101139.72;5035544;28;45441;-75
2022/09/01 00:38:32;;;;;;;;;13.33;13.33;;;;;21.52;61.50;101142.91;5025093;28;45723;-75
2022/09/01 00:40:59;;;;;;;;;13.33;13.33;;;;;21.44;61.84;101129.78;5015347;28;46661;-75
2022/09/01 00:43:43;;;;;;;;;17.67;16.67;;;;;21.44;61.65;101143.28;5015332;28;46085;-75
2022/09/01 00:46:12;;;;;;;;;17.33;16.33;;;;;21.39;62.26;101143.16;5029404;28;45395;-75
2022/09/01 00:48:38;;;;;;;;;15.00;13.33;;;;;21.37;61.72;101145.31;5015533;28;46733;-75
2022/09/01 00:51:06;;;;;;;;;14.33;14.33;;;;;21.35;62.25;101147.41;5029171;28;46234;-75
2022/09/01 00:53:33;;;;;;;;;13.00;13.00;;;;;21.27;61.97;101146.72;5020096;28;45554;-75
2022/09/01 00:56:00;;;;;;;;;15.00;15.00;;;;;21.21;62.32;101144.13;5015484;28;45368;-75
2022/09/01 00:58:25;;;;;;;;;15.33;14.67;;;;;21.17;62.39;101141.91;5028277;28;45554;-74
2022/09/01 01:00:52;;;;;;;;;13.67;13.67;;;;;21.14;62.65;101136.97;5023529;28;47061;-75
2022/09/01 01:03:19;;;;;;;;;15.67;15.67;;;;;21.09;62.87;101144.13;5021693;28;45318;-75
2022/09/01 01:05:53;;;;;;;;;15.33;15.33;;;;;21.02;62.97;101139.69;5022093;28;45293;-75
2022/09/01 01:08:27;;;;;;;;;16.00;15.00;;;;;20.98;63.61;101141.19;5022629;28;45339;-75
2022/09/01 01:10:53;;;;;;;;;17.00;16.00;;;;;20.91;63.04;101140.50;5016327;28;45309;-75
2022/09/01 01:13:19;;;;;;;;;15.67;14.67;;;;;20.89;63.53;101145.28;5024591;28;45405;-75
2022/09/01 01:15:45;;;;;;;;;16.67;16.00;;;;;20.87;64.18;101142.00;5016428;28;45361;-75
2022/09/01 01:18:14;;;;;;;;;18.00;15.33;;;;;20.79;63.68;101133.19;5051347;28;45372;-75
2022/09/01 01:23:38;;;;;;;;;14.67;14.67;;;;;20.81;63.87;101138.34;5016079;28;45280;-75
2022/09/01 01:26:06;;;;;;;;;14.67;14.67;;;;;20.75;64.22;101128.47;5021142;28;45187;-75
2022/09/01 01:28:37;;;;;;;;;14.67;14.67;;;;;20.68;64.18;101128.56;5023320;28;45493;-74
2022/09/01 01:31:11;;;;;;;;;13.33;13.33;;;;;20.63;64.54;101131.16;5015871;28;45231;-75
2022/09/01 01:33:58;;;;;;;;;16.00;15.00;;;;;20.64;64.70;101138.19;5027082;28;45260;-75
2022/09/01 01:36:31;;;;;;;;;15.00;14.33;;;;;20.60;65.02;101143.25;5051626;28;45292;-75
2022/09/01 01:39:01;;;;;;;;;14.67;13.67;;;;;20.54;64.73;101138.78;5020669;27;46606;-74
2022/09/01 01:41:28;;;;;;;;;14.33;14.33;;;;;20.51;65.42;101133.84;5014413;28;47067;-75
2022/09/01 01:43:57;;;;;;;;;14.67;14.67;;;;;20.48;65.05;101139.69;5027443;28;45499;-75
2022/09/01 01:46:24;;;;;;;;;15.67;13.67;;;;;20.47;65.39;101143.47;5016887;28;45405;-76
2022/09/01 01:48:51;;;;;;;;;15.67;15.33;;;;;20.43;65.34;101140.38;5026218;28;45774;-74
2022/09/01 01:51:19;;;;;;;;;13.67;13.67;;;;;20.41;65.24;101137.91;5018129;28;45462;-74
2022/09/01 01:53:46;;;;;;;;;15.67;15.67;;;;;20.37;65.82;101130.50;5015939;28;45279;-75
2022/09/01 01:56:11;;;;;;;;;14.00;11.67;;;;;20.34;65.62;101139.06;5015745;28;45357;-75
2022/09/01 01:58:39;;;;;;;;;16.67;16.00;;;;;20.34;65.98;101145.28;5032039;28;45931;-75
2022/09/01 02:01:05;;;;;;;;;14.67;14.67;;;;;20.25;66.10;101130.47;5024344;28;45582;-75
2022/09/01 02:03:37;;;;;;;;;14.67;14.00;;;;;20.27;65.69;101142.72;5015379;28;45377;-74
2022/09/01 02:06:08;;;;;;;;;12.67;12.67;;;;;20.27;65.73;101149.97;5016017;28;45352;-75
2022/09/01 02:08:36;;;;;;;;;13.33;13.00;;;;;20.27;66.44;101149.97;5028014;28;45408;-75
2022/09/01 02:11:04;;;;;;;;;13.67;13.33;;;;;20.24;66.35;101153.97;5016553;28;45569;-75
2022/09/01 02:13:30;;;;;;;;;15.67;14.67;;;;;20.23;66.44;101167.69;5030745;28;45369;-75
2022/09/01 02:15:59;;;;;;;;;13.33;13.00;;;;;20.15;66.61;101164.25;5020234;28;45360;-74
2022/09/01 02:18:35;;;;;;;;;14.33;14.33;;;;;20.18;66.67;101169.16;5025589;28;45343;-75
2022/09/01 02:21:02;;;;;;;;;14.67;14.67;;;;;20.17;66.68;101164.00;5018680;28;46084;-75
2022/09/01 02:23:28;;;;;;;;;17.33;16.67;;;;;20.13;66.83;101163.66;5046479;28;45769;-75
2022/09/01 02:25:59;;;;;;;;;15.33;13.67;;;;;20.10;66.51;101165.97;5033891;28;45511;-75
2022/09/01 02:28:26;;;;;;;;;14.67;14.67;;;;;20.08;66.91;101168.91;5044843;28;46501;-75
2022/09/01 02:30:53;;;;;;;;;14.33;14.33;;;;;20.02;66.88;101151.75;5033404;28;47783;-75
2022/09/01 02:33:20;;;;;;;;;16.33;16.33;;;;;20.03;67.10;101163.38;5018613;28;45336;-75
2022/09/01 02:35:53;;;;;;;;;15.67;14.67;;;;;20.00;67.38;101158.41;5018546;28;45336;-75
2022/09/01 02:38:19;;;;;;;;;16.67;16.00;;;;;19.96;67.52;101160.72;5025654;28;46798;-74
2022/09/01 02:40:45;;;;;;;;;17.00;17.00;;;;;19.97;67.44;101158.84;5033410;28;47619;-75
2022/09/01 02:43:12;;;;;;;;;18.67;17.00;;;;;19.88;67.51;101147.56;5018020;28;45333;-75
2022/09/01 02:45:42;;;;;;;;;21.00;19.33;;;;;19.89;67.63;101152.72;5030060;28;45545;-75
2022/09/01 02:48:09;;;;;;;;;14.67;14.67;;;;;19.85;67.81;101146.16;5018332;28;45283;-75
2022/09/01 02:50:38;;;;;;;;;14.67;14.67;;;;;19.85;68.17;101154.22;5018210;28;46691;-75
2022/09/01 02:53:08;;;;;;;;;15.67;15.33;;;;;19.83;68.18;101152.78;5031607;28;45655;-75
2022/09/01 02:55:41;;;;;;;;;14.00;13.33;;;;;19.77;68.47;101152.66;5044362;28;45405;-75
2022/09/01 02:58:15;;;;;;;;;15.00;13.33;;;;;19.78;68.55;101150.78;5049782;28;47282;-75
2022/09/01 03:00:42;;;;;;;;;14.67;14.67;;;;;19.74;68.22;101150.41;5018322;28;46318;-75
2022/09/01 03:03:07;;;;;;;;;14.33;14.33;;;;;19.75;68.37;101152.06;5018030;28;45328;-75
2022/09/01 03:05:34;;;;;;;;;14.00;13.00;;;;;19.73;68.47;101158.72;5018072;28;45330;-75
2022/09/01 03:08:03;;;;;;;;;16.33;16.33;;;;;19.70;68.71;101151.94;5017752;28;45573;-75
2022/09/01 03:10:34;;;;;;;;;15.33;14.33;;;;;19.70;68.78;101160.00;5017716;28;46108;-75
2022/09/01 03:13:11;;;;;;;;;14.33;13.67;;;;;19.65;68.83;101157.16;5026567;28;45307;-75
2022/09/01 03:15:38;;;;;;;;;15.33;15.00;;;;;19.61;69.19;101156.81;5018604;28;45497;-75
2022/09/01 03:18:04;;;;;;;;;14.00;14.00;;;;;19.63;68.87;101151.19;5028004;28;45325;-75
2022/09/01 03:20:32;;;;;;;;;16.33;16.00;;;;;19.61;68.85;101151.41;5046731;28;46806;-74
2022/09/01 03:22:59;;;;;;;;;15.33;14.67;;;;;19.59;69.24;101148.09;5040606;28;45375;-75
2022/09/01 03:25:24;;;;;;;;;13.00;13.00;;;;;19.55;69.46;101145.03;5023163;28;45374;-75
2022/09/01 03:27:52;;;;;;;;;14.33;14.33;;;;;19.60;69.36;101151.63;5017757;28;45507;-75
2022/09/01 03:30:19;;;;;;;;;17.00;15.00;;;;;19.53;69.19;101139.06;5017719;28;46135;-75
2022/09/01 03:32:46;;;;;;;;;16.00;16.00;;;;;19.53;68.96;101157.91;5035123;28;45344;-75
2022/09/01 03:35:12;;;;;;;;;15.00;15.00;;;;;19.47;69.60;101150.72;5026606;28;45554;-75
2022/09/01 03:37:38;;;;;;;;;14.00;13.67;;;;;19.47;69.28;101150.72;5030014;28;45673;-75
2022/09/01 03:40:07;;;;;;;;;12.67;12.67;;;;;19.43;69.50;101153.03;5042162;28;48011;-75
2022/09/01 03:42:34;;;;;;;;;13.33;13.33;;;;;19.41;69.46;101154.31;5032498;28;45372;-75
2022/09/01 03:45:08;;;;;;;;;13.33;12.67;;;;;19.42;69.80;101154.09;5024103;28;45439;-74
2022/09/01 03:47:39;;;;;;;;;15.33;14.67;;;;;19.39;69.86;101162.63;5022343;28;45337;-75
2022/09/01 03:50:10;;;;;;;;;15.00;15.00;;;;;19.37;70.17;101155.81;5023713;28;48377;-75
2022/09/01 03:52:35;;;;;;;;;14.00;13.00;;;;;19.37;70.15;101166.59;5032736;28;45504;-75
2022/09/01 03:55:01;;;;;;;;;15.00;15.00;;;;;19.32;70.11;101153.78;5016419;28;45252;-75
2022/09/01 03:57:27;;;;;;;;;15.33;15.00;;;;;19.33;70.08;101158.13;5041320;28;46389;-75
2022/09/01 03:59:53;;;;;;;;;14.33;14.33;;;;;19.27;70.15;101143.66;5017233;28;45559;-75
2022/09/01 04:02:19;;;;;;;;;13.00;12.67;;;;;19.28;70.25;101148.00;5019056;28;45624;-75
2022/09/01 04:04:44;;;;;;;;;13.67;13.00;;;;;19.27;70.42;101146.34;5032843;28;45363;-75
2022/09/01 04:07:10;;;;;;;;;15.67;15.67;;;;;19.28;70.66;101145.31;5034172;28;46230;-75
2022/09/01 04:09:36;;;;;;;;;15.00;15.00;;;;;19.23;70.22;101131.69;5027057;28;46183;-75
2022/09/01 04:12:07;;;;;;;;;16.00;16.00;;;;;19.29;70.80;101138.06;5017003;28;45378;-75
2022/09/01 04:14:33;;;;;;;;;15.00;15.00;;;;;19.22;71.24;101135.44;5025292;28;45417;-75
2022/09/01 04:19:43;;;;;;;;;13.33;13.00;;;;;19.29;71.01;101138.88;5017216;28;45275;-74
2022/09/01 04:22:12;;;;;;;;;15.33;15.33;;;;;19.33;70.69;101141.13;5103717;27;45225;-75
2022/09/01 04:24:44;;;;;;;;;15.00;15.00;;;;;19.28;70.75;101133.72;5017328;28;45319;-75
2022/09/01 04:27:10;;;;;;;;;16.67;16.67;;;;;19.29;70.71;101135.34;5029563;28;46192;-75
2022/09/01 04:29:37;;;;;;;;;13.33;13.33;;;;;19.24;70.88;101137.91;5017103;28;46467;-75
2022/09/01 04:32:10;;;;;;;;;13.00;12.67;;;;;19.22;71.06;101138.13;5045207;28;45873;-75
2022/09/01 04:34:37;;;;;;;;;15.67;15.00;;;;;19.13;70.68;101132.19;5031006;28;45385;-75
2022/09/01 04:37:11;;;;;;;;;16.67;16.00;;;;;19.15;71.13;101142.75;5027925;28;45845;-75
2022/09/01 04:39:38;;;;;;;;;16.00;15.00;;;;;19.05;71.31;101127.91;5031951;28;47279;-75
2022/09/01 04:42:05;;;;;;;;;15.67;15.67;;;;;19.04;71.20;101131.63;5016595;28;45440;-73
2022/09/01 04:44:30;;;;;;;;;15.67;14.33;;;;;19.03;71.45;101132.69;5016631;28;45311;-73
2022/09/01 04:46:55;;;;;;;;;15.33;15.00;;;;;19.00;71.95;101127.72;5041900;28;45358;-73
2022/09/01 04:49:23;;;;;;;;;15.33;15.33;;;;;18.99;71.52;101134.16;5031178;28;46737;-73
2022/09/01 04:51:50;;;;;;;;;17.00;17.00;;;;;18.99;71.87;101136.03;5017675;28;45304;-73
2022/09/01 04:54:18;;;;;;;;;17.00;15.67;;;;;18.98;71.97;101129.84;5041371;28;45367;-75
2022/09/01 04:56:49;;;;;;;;;16.67;16.67;;;;;18.96;72.24;101129.22;5026385;28;45468;-75
2022/09/01 04:59:19;;;;;;;;;13.67;13.67;;;;;18.91;72.31;101127.19;5026964;28;45507;-75
2022/09/01 05:01:45;;;;;;;;;18.67;18.67;;;;;18.90;72.27;101130.09;5032110;27;45312;-75
2022/09/01 05:04:26;;;;;;;;;14.00;14.00;;;;;18.90;71.85;101135.50;5024032;28;45662;-75
2022/09/01 05:06:56;;;;;;;;;18.00;17.00;;;;;18.85;72.25;101128.06;5031606;27;46764;-75
2022/09/01 05:09:23;;;;;;;;;15.00;14.00;;;;;18.85;72.36;101130.75;5036836;28;47811;-73
2022/09/01 05:11:49;;;;;;;;;15.00;14.67;;;;;18.84;72.63;101134.50;5016052;28;45297;-72
2022/09/01 05:14:18;;;;;;;;;14.33;14.33;;;;;18.79;72.20;101137.84;5016703;28;45226;-72
2022/09/01 05:16:44;;;;;;;;;13.00;13.00;;;;;18.77;72.48;101139.13;5033268;28;46288;-72
2022/09/01 05:19:13;;;;;;;;;13.33;13.33;;;;;18.73;72.47;101138.72;5026209;28;45286;-73
2022/09/01 05:21:44;;;;;;;;;14.33;14.33;;;;;18.79;72.60;101151.31;5029090;28;45325;-73
2022/09/01 05:24:11;;;;;;;;;18.00;17.00;;;;;18.82;72.52;101136.59;5024107;28;45319;-73
2022/09/01 05:26:39;;;;;;;;;17.00;16.33;;;;;18.79;72.80;101137.84;5020571;28;45292;-73
2022/09/01 05:29:12;;;;;;;;;18.00;16.33;;;;;18.83;72.44;101137.41;5019493;28;46309;-73
2022/09/01 05:31:40;;;;;;;;;18.67;17.00;;;;;18.81;72.61;101145.72;5016205;28;45239;-73
2022/09/01 05:34:08;;;;;;;;;20.33;18.33;;;;;18.83;72.84;101138.25;5022150;28;45286;-73
2022/09/01 05:36:36;;;;;;;;;17.67;17.00;;;;;18.86;72.77;101136.97;5021326;28;47197;-73
2022/09/01 05:39:03;;;;;;;;;15.33;15.00;;;;;18.91;73.15;101137.13;5034350;28;47018;-74
2022/09/01 05:41:29;;;;;;;;;18.67;18.00;;;;;18.95;72.89;101143.75;5022671;28;45309;-74
2022/09/01 05:43:54;;;;;;;;;15.00;15.00;;;;;18.96;72.73;101131.09;5015364;28;45145;-74
2022/09/01 05:46:25;;;;;;;;;17.67;17.00;;;;;19.03;72.91;101138.06;5024096;28;47319;-73
2022/09/01 05:48:52;;;;;;;;;15.33;15.33;;;;;19.16;72.46;101145.22;5019314;28;45521;-74
2022/09/01 05:51:21;;;;;;;;;19.00;18.00;;;;;19.18;72.75;101145.84;5015858;28;45382;-73
2022/09/01 05:53:50;;;;;;;;;18.00;18.00;;;;;19.17;72.26;101132.56;5015780;28;45393;-74
2022/09/01 05:56:18;;;;;;;;;17.67;17.67;;;;;19.29;72.86;101146.13;5015759;28;45372;-76
2022/09/01 05:58:44;;;;;;;;;14.67;14.33;;;;;19.34;72.64;101138.22;5029487;28;46293;-76
2022/09/01 06:01:20;;;;;;;;;22.00;22.00;;;;;19.44;72.27;101143.09;5015792;28;45309;-75
2022/09/01 06:03:53;;;;;;;;;18.00;17.67;;;;;19.54;72.26;101140.69;5016317;28;45312;-75
2022/09/01 06:06:36;;;;;;;;;18.67;18.67;;;;;19.64;71.57;101142.84;5018363;28;45344;-75
2022/09/01 06:09:04;;;;;;;;;18.67;17.67;;;;;19.71;70.92;101136.56;5026559;28;46048;-75
2022/09/01 06:11:31;;;;;;;;;15.67;15.67;;;;;19.79;70.69;101139.75;5033807;28;45666;-75
2022/09/01 06:13:58;;;;;;;;;17.33;16.00;;;;;19.86;70.41;101136.16;5031069;28;45428;-76
2022/09/01 06:16:23;;;;;;;;;17.67;17.67;;;;;19.88;70.76;101134.91;5049111;28;45786;-75
2022/09/01 06:18:52;;;;;;;;;16.67;16.67;;;;;19.96;70.41;101131.03;5024468;28;47148;-75
2022/09/01 06:21:18;;;;;;;;;19.00;18.33;;;;;20.05;70.13;101147.75;5018791;28;45228;-75
2022/09/01 06:23:44;;;;;;;;;21.33;21.33;;;;;20.13;69.80;101138.53;5023289;28;45415;-76
2022/09/01 06:26:26;;;;;;;;;20.33;19.00;;;;;20.22;69.27;101142.56;5030580;28;46265;-77
2022/09/01 06:28:53;;;;;;;;;18.67;18.33;;;;;20.23;69.24;101133.41;5015575;28;45261;-78
2022/09/01 06:31:24;;;;;;;;;18.67;17.67;;;;;20.33;68.74;101150.94;5015233;28;45500;-78
2022/09/01 06:33:54;;;;;;;;;19.67;19.67;;;;;20.39;68.71;101150.00;5019258;28;45425;-78
2022/09/01 06:36:22;;;;;;;;;20.33;18.67;;;;;20.44;68.64;101148.25;5014180;28;45577;-77
2022/09/01 06:38:49;;;;;;;;;18.67;17.67;;;;;20.48;68.00;101145.09;5033858;28;47881;-81
2022/09/01 06:41:18;;;;;;;;;17.00;17.00;;;;;20.50;67.65;101151.09;5050416;28;45375;-82
2022/09/01 06:43:48;;;;;;;;;19.00;18.00;;;;;20.53;67.30;101146.03;5024491;28;45386;-78
2022/09/01 06:46:15;;;;;;;;;20.00;19.00;;;;;20.51;67.64;101142.78;5014854;28;45388;-78
2022/09/01 06:48:45;;;;;;;;;16.67;15.67;;;;;20.59;67.24;101147.00;5013509;28;47070;-75
2022/09/01 06:51:16;;;;;;;;;18.67;18.67;;;;;20.62;66.80;101138.44;5030005;28;45321;-76
2022/09/01 06:53:42;;;;;;;;;18.33;18.33;;;;;20.68;67.25;101148.31;5039425;28;45340;-80
2022/09/01 06:56:11;;;;;;;;;15.00;15.00;;;;;20.72;66.73;101139.75;5031266;28;47149;-78
2022/09/01 06:58:40;;;;;;;;;17.67;16.00;;;;;20.79;66.48;101145.84;5034104;28;47291;-79
2022/09/01 07:01:14;;;;;;;;;19.33;18.00;;;;;20.84;66.13;101145.16;5053580;28;45369;-76
2022/09/01 07:03:46;;;;;;;;;33.00;30.00;;;;;20.88;67.21;101149.88;5037331;28;45328;-76
2022/09/01 07:06:13;;;;;;;;;15.33;15.33;;;;;20.91;66.79;101141.31;5033047;28;46081;-76
2022/09/01 07:08:40;;;;;;;;;22.33;21.33;;;;;20.94;66.41;101151.66;5016009;28;47928;-77
2022/09/01 07:11:08;;;;;;;;;19.00;18.00;;;;;20.99;66.39;101153.66;5024949;28;45582;-76
2022/09/01 07:13:34;;;;;;;;;18.00;18.00;;;;;21.04;66.04;101153.78;5022903;28;45389;-77
2022/09/01 07:16:03;;;;;;;;;22.67;22.00;;;;;21.05;66.42;101143.78;5023900;28;46283;-77
2022/09/01 07:18:30;;;;;;;;;21.67;19.33;;;;;21.08;65.99;101137.91;5024045;28;45410;-77
2022/09/01 07:20:56;;;;;;;;;20.33;20.33;;;;;21.15;66.36;101143.19;5027497;28;45360;-78
2022/09/01 07:23:23;;;;;;;;;20.67;19.00;;;;;21.19;65.83;101136.28;5020691;28;45314;-81
2022/09/01 07:25:53;;;;;;;;;28.00;25.67;;;;;21.27;66.18;101138.59;5025459;28;46215;-77
2022/09/01 07:28:19;;;;;;;;;40.00;32.67;;;;;21.36;65.44;101144.47;5032767;28;47449;-78
2022/09/01 07:30:47;;;;;;;;;32.67;30.67;;;;;21.43;66.06;101144.34;5017571;28;45353;-77
2022/09/01 07:33:17;;;;;;;;;26.00;22.33;;;;;21.51;65.12;101152.09;5017976;28;45337;-76
2022/09/01 07:35:43;;;;;;;;;29.33;27.67;;;;;21.59;65.38;101152.78;5015939;28;46146;-76
2022/09/01 07:38:09;;;;;;;;;24.00;22.00;;;;;21.67;65.35;101150.50;5018821;28;46751;-79
2022/09/01 07:40:37;;;;;;;;;29.00;27.67;;;;;21.77;65.27;101151.81;5034568;28;45730;-76
2022/09/01 07:43:13;;;;;;;;;25.67;25.00;;;;;21.87;64.80;101156.59;5034787;28;45348;-75
2022/09/01 07:45:45;;;;;;;;;23.00;22.67;;;;;21.89;65.21;101157.19;5033081;28;46276;-75
2022/09/01 07:48:13;;;;;;;;;28.33;26.00;;;;;21.93;64.92;101153.78;5016429;28;46181;-76
2022/09/01 07:50:46;;;;;;;;;23.33;20.67;;;;;22.06;64.16;101158.06;5016004;28;45477;-75
2022/09/01 07:53:18;;;;;;;;;32.00;29.67;;;;;22.06;64.00;101151.84;5015296;28;45376;-75
2022/09/01 07:55:45;;;;;;;;;24.67;23.00;;;;;22.22;64.09;101162.94;5019496;28;47451;-75
2022/09/01 07:58:12;;;;;;;;;44.25;38.00;;;;;22.33;64.65;101162.09;5034065;28;47343;-77
2022/09/01 08:00:39;;;;;;;;;26.33;26.00;;;;;22.39;64.16;101154.88;5016303;28;45411;-76
2022/09/01 08:03:04;;;;;;;;;22.67;19.33;;;;;22.56;63.32;101161.13;5030433;28;45358;-79
2022/09/01 08:05:31;;;;;;;;;19.00;16.33;;;;;22.65;64.11;101160.72;5026045;28;45276;-76
2022/09/01 08:07:57;;;;;;;;;24.33;24.00;;;;;22.78;64.44;101163.09;5030138;28;47028;-75
2022/09/01 08:10:22;;;;;;;;;16.67;16.67;;;;;22.87;63.89;101162.72;5016577;28;45281;-77
2022/09/01 08:12:48;;;;;;;;;16.00;16.00;;;;;22.93;63.38;101159.00;5015918;28;45321;-76
2022/09/01 08:15:15;;;;;;;;;15.33;15.33;;;;;23.10;62.96;101166.31;5018867;28;45368;-76
2022/09/01 08:17:41;;;;;;;;;15.33;14.33;;;;;23.19;62.29;101168.34;5018999;28;48053;-76
2022/09/01 08:20:08;;;;;;;;;21.00;19.00;;;;;23.23;62.44;101151.56;5024165;28;45906;-77
2022/09/01 08:22:36;;;;;;;;;18.67;16.33;;;;;23.34;62.13;101166.91;5035533;28;45295;-75
2022/09/01 08:25:07;;;;;;;;;15.67;14.33;;;;;23.36;61.87;101147.66;5018710;28;45526;-77
2022/09/01 08:27:37;;;;;;;;;15.67;15.67;;;;;23.51;61.01;101157.94;5024360;28;47355;-74
2022/09/01 08:30:09;;;;;;;;;32.00;28.67;;;;;23.64;62.07;101168.41;5019553;28;45385;-75
2022/09/01 08:32:35;;;;;;;;;16.67;16.00;;;;;23.72;62.11;101167.16;5015860;28;45341;-76
2022/09/01 08:35:03;;;;;;;;;15.67;14.00;;;;;23.76;61.17;101168.28;5022332;28;45534;-76
2022/09/01 08:37:29;;;;;;;;;17.67;17.00;;;;;23.76;61.21;101165.56;5033485;28;47074;-78
2022/09/01 08:39:55;;;;;;;;;16.67;16.00;;;;;23.85;61.04;101175.97;5022377;28;45307;-74
2022/09/01 08:42:26;;;;;;;;;14.67;14.33;;;;;23.90;60.44;101170.59;5017244;28;45289;-74
2022/09/01 08:45:01;;;;;;;;;15.00;15.00;;;;;23.92;60.38;101169.28;5033277;28;45713;-74
2022/09/01 08:47:27;;;;;;;;;11.33;11.33;;;;;23.91;61.45;101167.63;5031333;28;46560;-79
2022/09/01 08:49:52;;;;;;;;;15.00;14.67;;;;;23.99;61.24;101158.22;5021513;28;45357;-77
2022/09/01 08:52:30;;;;;;;;;13.00;13.00;;;;;23.91;60.95;101139.69;5016624;28;45413;-78
2022/09/01 08:55:20;;;;;;;;;13.00;12.00;;;;;24.11;60.08;101162.66;5016803;28;45221;-80
2022/09/01 08:57:50;;;;;;;;;12.00;11.67;;;;;24.18;59.74;101166.06;5028171;28;47058;-77
2022/09/01 09:00:19;;;;;;;;;16.67;15.00;;;;;24.20;59.25;101159.28;5029169;28;45373;-77
2022/09/01 09:03:26;;;;;;;;;13.33;13.33;;;;;24.34;59.35;101167.03;5026962;28;45387;-79
2022/09/01 09:06:13;;;;;;;;;13.33;13.33;;;;;24.49;59.00;101173.66;5014198;27;45781;-79
2022/09/01 09:08:58;;;;;;;;;12.33;12.33;;;;;24.59;58.39;101168.31;5033641;27;46928;-78
2022/09/01 09:11:45;;;;;;;;;10.67;10.67;;;;;24.69;57.76;101171.13;5034850;28;45351;-77
2022/09/01 09:14:32;;;;;;;;;14.33;12.33;;;;;24.70;57.37;101155.63;5020043;28;45327;-77
2022/09/01 09:16:58;;;;;;;;;11.00;11.00;;;;;24.80;57.33;101163.03;5032438;28;45713;-79
2022/09/01 09:19:27;;;;;;;;;13.00;12.00;;;;;24.89;57.09;101164.22;5031640;28;47170;-78
2022/09/01 09:21:55;;;;;;;;;9.00;9.00;;;;;25.04;57.23;101166.22;5024920;28;45371;-78
2022/09/01 09:24:54;;;;;;;;;10.33;10.33;;;;;25.12;57.02;101162.22;5015808;28;45292;-78
2022/09/01 09:27:27;;;;;;;;;9.33;9.33;;;;;25.24;55.84;101161.16;5015050;28;45370;-80
2022/09/01 09:29:55;;;;;;;;;10.00;10.00;;;;;25.22;55.91;101150.56;5015942;28;45482;-78
2022/09/01 09:32:23;;;;;;;;;11.33;11.33;;;;;25.36;56.17;101152.78;5020393;28;45502;-78
2022/09/01 09:34:50;;;;;;;;;10.33;9.33;;;;;25.43;56.12;101150.66;5013368;28;45534;-81
2022/09/01 09:37:30;;;;;;;;;13.33;12.67;;;;;25.44;54.74;101146.88;5023020;28;47144;-78
2022/09/01 09:40:10;;;;;;;;;13.00;12.00;;;;;25.59;54.48;101148.84;5016809;28;46405;-78
2022/09/01 09:42:38;;;;;;;;;9.33;9.00;;;;;25.67;54.17;101142.06;5023333;28;45848;-78
2022/09/01 09:45:19;;;;;;;;;10.00;10.00;;;;;25.83;53.91;101148.41;5015258;28;45391;-80
2022/09/01 09:47:48;;;;;;;;;12.00;10.67;;;;;25.95;53.34;101134.53;5034006;28;46006;-79
2022/09/01 09:50:17;;;;;;;;;11.67;11.67;;;;;26.09;52.75;101134.81;5031425;28;45489;-78
2022/09/01 09:52:45;;;;;;;;;12.33;10.67;;;;;26.19;52.57;101140.28;5034311;28;45447;-78
2022/09/01 09:55:29;;;;;;;;;9.67;9.67;;;;;26.37;52.09;101145.50;5019117;28;45236;-81
2022/09/01 09:58:36;;;;;;;;;9.67;9.67;;;;;26.49;51.61;101146.06;5031908;28;45468;-78
2022/09/01 10:01:23;;;;;;;;;13.33;11.33;;;;;26.60;52.02;101142.22;5017730;28;46333;-78
2022/09/01 10:04:53;;;;;;;;;11.33;11.33;;;;;26.52;51.45;101110.09;5031478;28;45478;-77
2022/09/01 10:10:23;;;;;;;;;10.33;10.33;;;;;26.93;49.58;101147.38;5001960;28;46512;-78
2022/09/01 10:12:52;;;;;;;;;10.33;10.00;;;;;27.00;50.73;101146.28;5014978;28;46228;-81
2022/09/01 10:15:20;;;;;;;;;11.00;11.00;;;;;26.98;49.97;101127.47;5023780;28;45488;-79
2022/09/01 10:17:46;;;;;;;;;10.67;10.67;;;;;27.11;50.68;101131.53;5033090;28;45840;-81
2022/09/01 10:20:24;;;;;;;;;13.33;12.00;;;;;27.26;49.48;101133.38;5035043;28;45396;-79
2022/09/01 10:22:50;;;;;;;;;10.67;10.67;;;;;27.37;49.18;101138.81;5033630;28;46458;-79
2022/09/01 10:25:20;;;;;;;;;12.00;11.00;;;;;27.42;48.69;101136.06;5021870;28;45356;-82
2022/09/01 10:27:57;;;;;;;;;10.00;10.00;;;;;27.47;49.02;101120.47;5029318;28;45448;-80
2022/09/01 10:30:22;;;;;;;;;10.00;10.00;;;;;27.60;48.11;101127.22;5015580;28;45468;-81
2022/09/01 10:32:58;;;;;;;;;11.00;9.00;;;;;27.67;47.84;101131.59;5021466;28;46802;-83
2022/09/01 10:35:53;;;;;;;;;9.67;8.67;;;;;27.70;46.66;101114.66;5036958;28;45372;-80
2022/09/01 10:38:29;;;;;;;;;9.33;7.67;;;;;27.69;46.38;101107.59;5046695;28;45394;-81
2022/09/01 10:41:09;;;;;;;;;8.33;8.33;;;;;27.75;44.38;101125.56;5032345;28;45372;-81
2022/09/01 10:43:40;;;;;;;;;9.67;9.67;;;;;27.78;45.19;101125.00;5018200;28;45224;-83
2022/09/01 10:46:21;;;;;;;;;6.67;6.67;;;;;27.83;45.05;101121.41;5031082;28;46190;-81
2022/09/01 10:48:51;;;;;;;;;9.33;9.33;;;;;27.89;45.98;101124.94;5032224;28;45361;-81
2022/09/01 10:51:17;;;;;;;;;9.00;8.67;;;;;27.93;45.13;101123.28;5029072;27;47083;-80
2022/09/01 10:53:48;;;;;;;;;7.67;7.67;;;;;27.97;45.24;101127.88;5018964;28;46166;-81
2022/09/01 10:56:35;;;;;;;;;8.33;8.00;;;;;28.01;43.84;101130.06;5024224;28;45843;-83
2022/09/01 10:59:07;;;;;;;;;8.00;8.00;;;;;28.09;43.88;101121.25;5033873;28;45308;-81
2022/09/01 11:01:39;;;;;;;;;7.67;7.67;;;;;28.23;43.68;101126.88;5023766;28;45553;-81
2022/09/01 11:04:08;;;;;;;;;5.67;5.67;;;;;28.32;42.79;101118.91;5030618;28;46917;-80
2022/09/01 11:06:40;;;;;;;;;8.67;8.67;;;;;28.44;42.61;101113.06;5017298;28;45429;-81
2022/09/01 11:09:18;;;;;;;;;8.33;8.33;;;;;28.59;43.98;101112.94;5033079;28;45427;-82
2022/09/01 11:11:50;;;;;;;;;9.00;9.00;;;;;28.70;43.36;101113.63;5032277;28;46491;-82
2022/09/01 11:14:22;;;;;;;;;9.00;8.00;;;;;28.76;43.92;101114.38;5033842;28;47801;-81
2022/09/01 11:17:25;;;;;;;;;10.33;10.33;;;;;28.86;43.47;101108.84;5031435;28;45709;-82
2022/09/01 11:19:54;;;;;;;;;9.00;9.00;;;;;28.96;43.85;101109.84;5017818;28;45362;-81
2022/09/01 11:22:36;;;;;;;;;10.67;10.67;;;;;28.97;42.86;101109.56;5027894;28;45703;-79
2022/09/01 11:25:37;;;;;;;;;8.00;8.00;;;;;28.94;42.59;101106.59;5037512;28;45774;-81
2022/09/01 11:28:14;;;;;;;;;8.00;8.00;;;;;28.88;42.85;101094.84;5029281;28;45286;-79
2022/09/01 11:30:54;;;;;;;;;11.00;11.00;;;;;28.95;43.52;101102.75;5025034;28;45329;-79
2022/09/01 11:33:57;;;;;;;;;9.33;8.33;;;;;29.03;43.34;101104.81;5024930;28;45482;-82
2022/09/01 11:36:28;;;;;;;;;9.00;9.00;;;;;29.09;42.49;101111.88;5033043;28;47437;-84